![]() |
EMODnet Physics ERDDAP
Easier access to scientific data |
log in|
Brought to you by EMODnet Physics |
| Dataset Title: | NDBC - Collection of dew point temperature (DEWT) TimeSeries - IN SITU MultiPointTimeSeriesObservation
|
| Institution: | NDBC (Dataset ID: TS_DEWT_NDBC) |
| Information: | Summary
| License
| FGDC
| ISO 19115
| Metadata
| Background
| Subset
| Data Access Form
| Make a graph
|
| Name | Last modified | Size | Description | |
|---|---|---|---|---|
| Parent Directory | - | - | ||
| 41047_TS_DEWT_012008.nc | 26-Oct-2024 12:12 | 450070 | ||
| 41047_TS_DEWT_012010.nc | 26-Oct-2024 12:12 | 449060 | ||
| 41047_TS_DEWT_012011.nc | 26-Oct-2024 12:12 | 471663 | ||
| 41047_TS_DEWT_012012.nc | 26-Oct-2024 12:12 | 628542 | ||
| 41047_TS_DEWT_012013.nc | 26-Oct-2024 12:12 | 630251 | ||
| 41047_TS_DEWT_012014.nc | 26-Oct-2024 12:12 | 628489 | ||
| 41047_TS_DEWT_012015.nc | 26-Oct-2024 12:12 | 627843 | ||
| 41047_TS_DEWT_012016.nc | 26-Oct-2024 12:13 | 462418 | ||
| 41047_TS_DEWT_012017.nc | 26-Oct-2024 12:13 | 450714 | ||
| 41047_TS_DEWT_012018.nc | 26-Oct-2024 12:13 | 628634 | ||
| 41047_TS_DEWT_012019.nc | 26-Oct-2024 12:13 | 464015 | ||
| 41047_TS_DEWT_012020.nc | 26-Oct-2024 12:13 | 632575 | ||
| 41047_TS_DEWT_012021.nc | 26-Oct-2024 12:13 | 630732 | ||
| 41047_TS_DEWT_012022.nc | 26-Oct-2024 12:13 | 628286 | ||
| 41047_TS_DEWT_012023.nc | 26-Oct-2024 12:13 | 626879 | ||
| 41047_TS_DEWT_012024.nc | 26-Oct-2024 12:13 | 628637 | ||
| 41047_TS_DEWT_022008.nc | 26-Oct-2024 12:13 | 450832 | ||
| 41047_TS_DEWT_022010.nc | 26-Oct-2024 12:13 | 628294 | ||
| 41047_TS_DEWT_022011.nc | 26-Oct-2024 12:13 | 479519 | ||
| 41047_TS_DEWT_022012.nc | 26-Oct-2024 12:13 | 479719 | ||
| 41047_TS_DEWT_022013.nc | 26-Oct-2024 12:13 | 479517 | ||
| 41047_TS_DEWT_022014.nc | 26-Oct-2024 12:13 | 428250 | ||
| 41047_TS_DEWT_022015.nc | 26-Oct-2024 12:13 | 460873 | ||
| 41047_TS_DEWT_022016.nc | 26-Oct-2024 12:13 | 479669 | ||
| 41047_TS_DEWT_022017.nc | 26-Oct-2024 12:14 | 451196 | ||
| 41047_TS_DEWT_022018.nc | 26-Oct-2024 12:14 | 479036 | ||
| 41047_TS_DEWT_022019.nc | 26-Oct-2024 12:14 | 444099 | ||
| 41047_TS_DEWT_022020.nc | 26-Oct-2024 12:14 | 630700 | ||
| 41047_TS_DEWT_022022.nc | 26-Oct-2024 12:14 | 632040 | ||
| 41047_TS_DEWT_022023.nc | 26-Oct-2024 12:14 | 628814 | ||
| 41047_TS_DEWT_022024.nc | 16-Sep-2024 16:51 | 449425 | ||
| 41047_TS_DEWT_032008.nc | 26-Oct-2024 12:14 | 472243 | ||
| 41047_TS_DEWT_032010.nc | 26-Oct-2024 12:14 | 449957 | ||
| 41047_TS_DEWT_032011.nc | 26-Oct-2024 12:14 | 449386 | ||
| 41047_TS_DEWT_032012.nc | 26-Oct-2024 12:14 | 628833 | ||
| 41047_TS_DEWT_032013.nc | 26-Oct-2024 12:14 | 481293 | ||
| 41047_TS_DEWT_032014.nc | 26-Oct-2024 12:14 | 481747 | ||
| 41047_TS_DEWT_032015.nc | 26-Oct-2024 12:14 | 479319 | ||
| 41047_TS_DEWT_032016.nc | 26-Oct-2024 12:14 | 479532 | ||
| 41047_TS_DEWT_032017.nc | 26-Oct-2024 12:14 | 440560 | ||
| 41047_TS_DEWT_032018.nc | 26-Oct-2024 12:14 | 480430 | ||
| 41047_TS_DEWT_032019.nc | 26-Oct-2024 12:14 | 450273 | ||
| 41047_TS_DEWT_032020.nc | 26-Oct-2024 12:14 | 449071 | ||
| 41047_TS_DEWT_032022.nc | 26-Oct-2024 12:14 | 480691 | ||
| 41047_TS_DEWT_032023.nc | 26-Oct-2024 12:15 | 630536 | ||
| 41047_TS_DEWT_042008.nc | 26-Oct-2024 12:15 | 628884 | ||
| 41047_TS_DEWT_042010.nc | 26-Oct-2024 12:15 | 629309 | ||
| 41047_TS_DEWT_042011.nc | 26-Oct-2024 12:15 | 456943 | ||
| 41047_TS_DEWT_042012.nc | 26-Oct-2024 12:15 | 451751 | ||
| 41047_TS_DEWT_042013.nc | 26-Oct-2024 12:15 | 629818 | ||
| 41047_TS_DEWT_042014.nc | 26-Oct-2024 12:15 | 450101 | ||
| 41047_TS_DEWT_042015.nc | 26-Oct-2024 12:15 | 450042 | ||
| 41047_TS_DEWT_042016.nc | 26-Oct-2024 12:15 | 629929 | ||
| 41047_TS_DEWT_042017.nc | 26-Oct-2024 12:15 | 429307 | ||
| 41047_TS_DEWT_042018.nc | 26-Oct-2024 12:15 | 429334 | ||
| 41047_TS_DEWT_042019.nc | 26-Oct-2024 12:15 | 429832 | ||
| 41047_TS_DEWT_042020.nc | 26-Oct-2024 12:15 | 424911 | ||
| 41047_TS_DEWT_042022.nc | 26-Oct-2024 12:15 | 429835 | ||
| 41047_TS_DEWT_042023.nc | 26-Oct-2024 12:15 | 429835 | ||
| 41047_TS_DEWT_042025.nc | 15-May-2025 04:16 | 429834 | ||
| 41047_TS_DEWT_052008.nc | 26-Oct-2024 12:15 | 427438 | ||
| 41047_TS_DEWT_052009.nc | 26-Oct-2024 12:15 | 423486 | ||
| 41047_TS_DEWT_052010.nc | 26-Oct-2024 12:15 | 429834 | ||
| 41047_TS_DEWT_052011.nc | 26-Oct-2024 12:16 | 429833 | ||
| 41047_TS_DEWT_052012.nc | 26-Oct-2024 12:16 | 429815 | ||
| 41047_TS_DEWT_052013.nc | 26-Oct-2024 12:16 | 429733 | ||
| 41047_TS_DEWT_052014.nc | 26-Oct-2024 12:16 | 429830 | ||
| 41047_TS_DEWT_052015.nc | 26-Oct-2024 12:16 | 429837 | ||
| 41047_TS_DEWT_052016.nc | 26-Oct-2024 12:16 | 429312 | ||
| 41047_TS_DEWT_052017.nc | 26-Oct-2024 12:16 | 451551 | ||
| 41047_TS_DEWT_052018.nc | 26-Oct-2024 12:16 | 451018 | ||
| 41047_TS_DEWT_052019.nc | 26-Oct-2024 12:16 | 437763 | ||
| 41047_TS_DEWT_052020.nc | 26-Oct-2024 12:16 | 3008940 | ||
| 41047_TS_DEWT_052022.nc | 26-Oct-2024 12:16 | 428541 | ||
| 41047_TS_DEWT_052023.nc | 26-Oct-2024 12:16 | 424356 | ||
| 41047_TS_DEWT_052025.nc | 01-Jun-2025 04:48 | 428807 | ||
| 41047_TS_DEWT_062008.nc | 26-Oct-2024 12:16 | 428310 | ||
| 41047_TS_DEWT_062009.nc | 26-Oct-2024 12:17 | 428783 | ||
| 41047_TS_DEWT_062010.nc | 26-Oct-2024 12:17 | 428805 | ||
| 41047_TS_DEWT_062011.nc | 26-Oct-2024 12:17 | 426135 | ||
| 41047_TS_DEWT_062012.nc | 26-Oct-2024 12:17 | 429059 | ||
| 41047_TS_DEWT_062013.nc | 26-Oct-2024 12:17 | 428801 | ||
| 41047_TS_DEWT_062014.nc | 26-Oct-2024 12:17 | 428808 | ||
| 41047_TS_DEWT_062015.nc | 26-Oct-2024 12:17 | 428806 | ||
| 41047_TS_DEWT_062016.nc | 26-Oct-2024 12:17 | 429128 | ||
| 41047_TS_DEWT_062017.nc | 26-Oct-2024 12:17 | 428810 | ||
| 41047_TS_DEWT_062018.nc | 26-Oct-2024 12:17 | 428103 | ||
| 41047_TS_DEWT_062019.nc | 26-Oct-2024 12:17 | 447119 | ||
| 41047_TS_DEWT_062020.nc | 26-Oct-2024 12:17 | 419993 | ||
| 41047_TS_DEWT_062021.nc | 26-Oct-2024 12:17 | 1760413 | ||
| 41047_TS_DEWT_062022.nc | 26-Oct-2024 12:17 | 4153787 | ||
| 41047_TS_DEWT_062023.nc | 26-Oct-2024 12:17 | 428864 | ||
| 41047_TS_DEWT_062025.nc | 01-Jul-2025 04:55 | 429730 | ||
| 41047_TS_DEWT_072008.nc | 26-Oct-2024 12:17 | 429835 | ||
| 41047_TS_DEWT_072009.nc | 26-Oct-2024 12:18 | 429829 | ||
| 41047_TS_DEWT_072010.nc | 26-Oct-2024 12:18 | 429836 | ||
| 41047_TS_DEWT_072011.nc | 26-Oct-2024 12:18 | 429833 | ||
| 41047_TS_DEWT_072012.nc | 26-Oct-2024 12:18 | 429370 | ||
| 41047_TS_DEWT_072013.nc | 26-Oct-2024 12:18 | 429821 | ||
| 41047_TS_DEWT_072014.nc | 26-Oct-2024 12:18 | 429832 | ||
| 41047_TS_DEWT_072015.nc | 26-Oct-2024 12:18 | 429829 | ||
| 41047_TS_DEWT_072016.nc | 26-Oct-2024 12:18 | 429839 | ||
| 41047_TS_DEWT_072017.nc | 26-Oct-2024 12:18 | 429832 | ||
| 41047_TS_DEWT_072018.nc | 26-Oct-2024 12:18 | 429140 | ||
| 41047_TS_DEWT_072019.nc | 26-Oct-2024 12:18 | 428198 | ||
| 41047_TS_DEWT_072020.nc | 26-Oct-2024 12:18 | 429815 | ||
| 41047_TS_DEWT_072021.nc | 26-Oct-2024 12:18 | 451105 | ||
| 41047_TS_DEWT_072022.nc | 26-Oct-2024 12:18 | 3578704 | ||
| 41047_TS_DEWT_072023.nc | 26-Oct-2024 12:18 | 3006656 | ||
| 41047_TS_DEWT_072025.nc | 01-Aug-2025 05:03 | 428973 | ||
| 41047_TS_DEWT_082008.nc | 26-Oct-2024 12:18 | 420449 | ||
| 41047_TS_DEWT_082009.nc | 26-Oct-2024 12:18 | 429356 | ||
| 41047_TS_DEWT_082011.nc | 26-Oct-2024 12:18 | 429489 | ||
| 41047_TS_DEWT_082012.nc | 26-Oct-2024 12:19 | 425767 | ||
| 41047_TS_DEWT_082013.nc | 26-Oct-2024 12:19 | 429495 | ||
| 41047_TS_DEWT_082014.nc | 26-Oct-2024 12:19 | 429491 | ||
| 41047_TS_DEWT_082015.nc | 26-Oct-2024 12:19 | 429463 | ||
| 41047_TS_DEWT_082016.nc | 26-Oct-2024 12:19 | 429463 | ||
| 41047_TS_DEWT_082017.nc | 26-Oct-2024 12:19 | 429494 | ||
| 41047_TS_DEWT_082018.nc | 26-Oct-2024 12:19 | 429494 | ||
| 41047_TS_DEWT_082019.nc | 26-Oct-2024 12:19 | 429489 | ||
| 41047_TS_DEWT_082020.nc | 26-Oct-2024 12:19 | 429448 | ||
| 41047_TS_DEWT_082021.nc | 26-Oct-2024 12:19 | 429492 | ||
| 41047_TS_DEWT_082022.nc | 26-Oct-2024 12:19 | 429490 | ||
| 41047_TS_DEWT_082023.nc | 26-Oct-2024 12:19 | 429496 | ||
| 41047_TS_DEWT_082024.nc | 09-Jan-2025 11:44 | 450147 | ||
| 41047_TS_DEWT_082025.nc | 20-Aug-2025 04:08 | 4208895 | ||
| 41047_TS_DEWT_092007.nc | 26-Oct-2024 12:19 | 429331 | ||
| 41047_TS_DEWT_092008.nc | 26-Oct-2024 12:19 | 429329 | ||
| 41047_TS_DEWT_092009.nc | 26-Oct-2024 12:19 | 429833 | ||
| 41047_TS_DEWT_092011.nc | 26-Oct-2024 12:19 | 429837 | ||
| 41047_TS_DEWT_092012.nc | 26-Oct-2024 12:19 | 421429 | ||
| 41047_TS_DEWT_092013.nc | 26-Oct-2024 12:19 | 429816 | ||
| 41047_TS_DEWT_092014.nc | 26-Oct-2024 12:20 | 429829 | ||
| 41047_TS_DEWT_092015.nc | 26-Oct-2024 12:20 | 429461 | ||
| 41047_TS_DEWT_092016.nc | 26-Oct-2024 12:20 | 429832 | ||
| 41047_TS_DEWT_092017.nc | 26-Oct-2024 12:20 | 429829 | ||
| 41047_TS_DEWT_092018.nc | 26-Oct-2024 12:20 | 429837 | ||
| 41047_TS_DEWT_092019.nc | 26-Oct-2024 12:20 | 429817 | ||
| 41047_TS_DEWT_092020.nc | 26-Oct-2024 12:20 | 429804 | ||
| 41047_TS_DEWT_092021.nc | 26-Oct-2024 12:20 | 429839 | ||
| 41047_TS_DEWT_092022.nc | 26-Oct-2024 12:20 | 429832 | ||
| 41047_TS_DEWT_092023.nc | 26-Oct-2024 12:20 | 429834 | ||
| 41047_TS_DEWT_092024.nc | 10-Jan-2025 21:57 | 450726 | ||
| 41047_TS_DEWT_102007.nc | 26-Oct-2024 12:20 | 4621476 | ||
| 41047_TS_DEWT_102008.nc | 26-Oct-2024 12:20 | 428860 | ||
| 41047_TS_DEWT_102009.nc | 26-Oct-2024 12:20 | 427263 | ||
| 41047_TS_DEWT_102011.nc | 26-Oct-2024 12:20 | 429152 | ||
| 41047_TS_DEWT_102012.nc | 26-Oct-2024 12:20 | 429293 | ||
| 41047_TS_DEWT_102013.nc | 26-Oct-2024 12:20 | 429493 | ||
| 41047_TS_DEWT_102014.nc | 26-Oct-2024 12:21 | 429489 | ||
| 41047_TS_DEWT_102015.nc | 26-Oct-2024 12:21 | 429445 | ||
| 41047_TS_DEWT_102016.nc | 26-Oct-2024 12:21 | 429490 | ||
| 41047_TS_DEWT_102017.nc | 26-Oct-2024 12:21 | 429493 | ||
| 41047_TS_DEWT_102018.nc | 26-Oct-2024 12:21 | 429496 | ||
| 41047_TS_DEWT_102019.nc | 26-Oct-2024 12:21 | 429469 | ||
| 41047_TS_DEWT_102020.nc | 26-Oct-2024 12:21 | 428978 | ||
| 41047_TS_DEWT_102021.nc | 26-Oct-2024 12:21 | 429496 | ||
| 41047_TS_DEWT_102022.nc | 26-Oct-2024 12:21 | 429489 | ||
| 41047_TS_DEWT_102023.nc | 26-Oct-2024 12:21 | 429494 | ||
| 41047_TS_DEWT_102024.nc | 11-Jan-2025 13:42 | 429494 | ||
| 41047_TS_DEWT_112007.nc | 26-Oct-2024 12:21 | 448708 | ||
| 41047_TS_DEWT_112008.nc | 26-Oct-2024 12:21 | 4492487 | ||
| 41047_TS_DEWT_112009.nc | 26-Oct-2024 12:21 | 424836 | ||
| 41047_TS_DEWT_112011.nc | 26-Oct-2024 12:21 | 427432 | ||
| 41047_TS_DEWT_112012.nc | 26-Oct-2024 12:21 | 429700 | ||
| 41047_TS_DEWT_112013.nc | 26-Oct-2024 12:21 | 429832 | ||
| 41047_TS_DEWT_112014.nc | 26-Oct-2024 12:21 | 429833 | ||
| 41047_TS_DEWT_112015.nc | 26-Oct-2024 12:22 | 429835 | ||
| 41047_TS_DEWT_112016.nc | 26-Oct-2024 12:22 | 429833 | ||
| 41047_TS_DEWT_112017.nc | 26-Oct-2024 12:22 | 429790 | ||
| 41047_TS_DEWT_112018.nc | 26-Oct-2024 12:22 | 429693 | ||
| 41047_TS_DEWT_112019.nc | 26-Oct-2024 12:22 | 429833 | ||
| 41047_TS_DEWT_112020.nc | 26-Oct-2024 12:22 | 429816 | ||
| 41047_TS_DEWT_112021.nc | 26-Oct-2024 12:22 | 427962 | ||
| 41047_TS_DEWT_112022.nc | 26-Oct-2024 12:22 | 429818 | ||
| 41047_TS_DEWT_112023.nc | 26-Oct-2024 12:22 | 429835 | ||
| 41047_TS_DEWT_122007.nc | 26-Oct-2024 12:22 | 429830 | ||
| 41047_TS_DEWT_122009.nc | 26-Oct-2024 12:22 | 429834 | ||
| 41047_TS_DEWT_122010.nc | 26-Oct-2024 12:22 | 429834 | ||
| 41047_TS_DEWT_122011.nc | 26-Oct-2024 12:22 | 429834 | ||
| 41047_TS_DEWT_122012.nc | 26-Oct-2024 12:22 | 450879 | ||
| 41047_TS_DEWT_122013.nc | 26-Oct-2024 12:23 | 3901218 | ||
| 41047_TS_DEWT_122014.nc | 26-Oct-2024 12:23 | 429735 | ||
| 41047_TS_DEWT_122015.nc | 26-Oct-2024 12:23 | 429831 | ||
| 41047_TS_DEWT_122016.nc | 26-Oct-2024 12:23 | 428510 | ||
| 41047_TS_DEWT_122017.nc | 26-Oct-2024 12:23 | 429483 | ||
| 41047_TS_DEWT_122018.nc | 26-Oct-2024 12:23 | 429806 | ||
| 41047_TS_DEWT_122019.nc | 26-Oct-2024 12:23 | 429299 | ||
| 41047_TS_DEWT_122020.nc | 26-Oct-2024 12:23 | 429817 | ||
| 41047_TS_DEWT_122021.nc | 26-Oct-2024 12:23 | 424985 | ||
| 41047_TS_DEWT_122022.nc | 26-Oct-2024 12:23 | 429836 | ||
| 41047_TS_DEWT_122023.nc | 26-Oct-2024 12:23 | 429805 | ||